Barnerville, New York
Current Conditions -  °F | °C
As of 8:35 PM on Friday 24 Oct 2014 (Local Time) from KNY0 Reporting Station
Scattered Clouds Scattered Clouds  
Wind Chill: 45°   Ceiling: Unl
Heat Index: 47°   Visibility: 10mi
Dew Point: 40°   Wind: 6mph
Humidity: 76%   Direction: 290°WNW
Pressure: 29.86"   Gusts: NA
Location:  42.7023°N, 74.392°W
Report Text: KNY0 250035Z AUTO 29005KT 10SM SCT080 09/05 A2986 RMK AO2 T00850045
Loading
Personal Weather Stations






























Interactive Weather Map
Tropical Storm Tracking
New forecast layout! Learn more

10-Day Weather Forecast

Advertisements
Track Severe Weather on mobile